sensor_id;sensor_type;location;lat;lon;timestamp;P1;durP1;ratioP1;P2;durP2;ratioP2
68800;SDS011;55784;50.734;7.086;2023-01-01T00:01:36;10.07;;;3.47;;
68800;SDS011;55784;50.734;7.086;2023-01-01T00:04:04;9.55;;;3.38;;
68800;SDS011;55784;50.734;7.086;2023-01-01T00:06:34;9.70;;;3.70;;
68800;SDS011;55784;50.734;7.086;2023-01-01T00:08:59;9.00;;;3.80;;
68800;SDS011;55784;50.734;7.086;2023-01-01T00:11:43;10.02;;;3.47;;
68800;SDS011;55784;50.734;7.086;2023-01-01T00:14:08;7.57;;;2.27;;
68800;SDS011;55784;50.734;7.086;2023-01-01T00:16:33;6.27;;;2.27;;
68800;SDS011;55784;50.734;7.086;2023-01-01T00:18:59;8.03;;;2.00;;
68800;SDS011;55784;50.734;7.086;2023-01-01T00:21:24;8.97;;;3.30;;
68800;SDS011;55784;50.734;7.086;2023-01-01T00:23:50;7.13;;;2.00;;
68800;SDS011;55784;50.734;7.086;2023-01-01T00:26:15;9.27;;;2.10;;
68800;SDS011;55784;50.734;7.086;2023-01-01T00:28:42;7.07;;;1.80;;
68800;SDS011;55784;50.734;7.086;2023-01-01T00:31:09;7.22;;;1.50;;
68800;SDS011;55784;50.734;7.086;2023-01-01T00:33:35;6.10;;;1.50;;
68800;SDS011;55784;50.734;7.086;2023-01-01T00:36:07;6.53;;;1.50;;
68800;SDS011;55784;50.734;7.086;2023-01-01T00:38:39;5.68;;;1.70;;
68800;SDS011;55784;50.734;7.086;2023-01-01T00:41:05;6.30;;;1.50;;
68800;SDS011;55784;50.734;7.086;2023-01-01T00:43:31;7.10;;;1.60;;
68800;SDS011;55784;50.734;7.086;2023-01-01T00:45:57;5.80;;;1.58;;
68800;SDS011;55784;50.734;7.086;2023-01-01T00:48:22;7.00;;;2.60;;
68800;SDS011;55784;50.734;7.086;2023-01-01T00:50:48;5.85;;;1.50;;
68800;SDS011;55784;50.734;7.086;2023-01-01T00:53:15;5.68;;;1.70;;
68800;SDS011;55784;50.734;7.086;2023-01-01T00:55:40;5.63;;;1.30;;
68800;SDS011;55784;50.734;7.086;2023-01-01T00:58:06;5.67;;;1.40;;
68800;SDS011;55784;50.734;7.086;2023-01-01T01:00:31;6.40;;;1.30;;
68800;SDS011;55784;50.734;7.086;2023-01-01T01:02:57;5.23;;;1.30;;
68800;SDS011;55784;50.734;7.086;2023-01-01T01:05:22;6.13;;;1.50;;
68800;SDS011;55784;50.734;7.086;2023-01-01T01:07:48;5.13;;;1.10;;
68800;SDS011;55784;50.734;7.086;2023-01-01T01:10:13;4.63;;;1.30;;
68800;SDS011;55784;50.734;7.086;2023-01-01T01:12:39;6.40;;;1.10;;
68800;SDS011;55784;50.734;7.086;2023-01-01T01:15:04;4.43;;;1.10;;
68800;SDS011;55784;50.734;7.086;2023-01-01T01:17:31;6.27;;;1.10;;
68800;SDS011;55784;50.734;7.086;2023-01-01T01:19:57;6.57;;;1.40;;
68800;SDS011;55784;50.734;7.086;2023-01-01T01:22:22;5.13;;;1.10;;
68800;SDS011;55784;50.734;7.086;2023-01-01T01:24:48;5.53;;;1.27;;
68800;SDS011;55784;50.734;7.086;2023-01-01T01:27:13;4.67;;;1.10;;
68800;SDS011;55784;50.734;7.086;2023-01-01T01:29:39;4.67;;;1.17;;
68800;SDS011;55784;50.734;7.086;2023-01-01T01:32:04;6.03;;;1.20;;
68800;SDS011;55784;50.734;7.086;2023-01-01T01:34:29;4.35;;;1.13;;
68800;SDS011;55784;50.734;7.086;2023-01-01T01:36:55;4.83;;;1.20;;
68800;SDS011;55784;50.734;7.086;2023-01-01T01:39:20;4.77;;;1.07;;
68800;SDS011;55784;50.734;7.086;2023-01-01T01:41:46;7.47;;;1.30;;
68800;SDS011;55784;50.734;7.086;2023-01-01T01:47:19;5.25;;;1.20;;
68800;SDS011;55784;50.734;7.086;2023-01-01T01:50:10;6.03;;;1.40;;
68800;SDS011;55784;50.734;7.086;2023-01-01T01:52:41;5.75;;;1.30;;
68800;SDS011;55784;50.734;7.086;2023-01-01T01:55:28;5.35;;;1.23;;
68800;SDS011;55784;50.734;7.086;2023-01-01T01:57:56;6.38;;;1.40;;
68800;SDS011;55784;50.734;7.086;2023-01-01T02:00:22;7.07;;;1.33;;
68800;SDS011;55784;50.734;7.086;2023-01-01T02:02:50;5.88;;;1.13;;
68800;SDS011;55784;50.734;7.086;2023-01-01T02:05:20;5.50;;;1.20;;
68800;SDS011;55784;50.734;7.086;2023-01-01T02:07:46;5.03;;;1.20;;
68800;SDS011;55784;50.734;7.086;2023-01-01T02:10:13;6.60;;;1.20;;
68800;SDS011;55784;50.734;7.086;2023-01-01T02:12:38;6.93;;;1.10;;
68800;SDS011;55784;50.734;7.086;2023-01-01T02:15:03;5.47;;;1.20;;
68800;SDS011;55784;50.734;7.086;2023-01-01T02:17:34;6.03;;;1.13;;
68800;SDS011;55784;50.734;7.086;2023-01-01T02:20:10;6.35;;;1.15;;
68800;SDS011;55784;50.734;7.086;2023-01-01T02:29:00;6.65;;;1.20;;
68800;SDS011;55784;50.734;7.086;2023-01-01T02:31:34;5.27;;;1.30;;
68800;SDS011;55784;50.734;7.086;2023-01-01T02:34:28;6.88;;;1.10;;
68800;SDS011;55784;50.734;7.086;2023-01-01T02:36:58;5.90;;;1.10;;
68800;SDS011;55784;50.734;7.086;2023-01-01T02:39:27;7.15;;;1.40;;
68800;SDS011;55784;50.734;7.086;2023-01-01T02:41:56;6.72;;;1.20;;
68800;SDS011;55784;50.734;7.086;2023-01-01T02:44:24;5.70;;;1.00;;
68800;SDS011;55784;50.734;7.086;2023-01-01T02:46:52;5.55;;;1.10;;
68800;SDS011;55784;50.734;7.086;2023-01-01T02:49:17;5.27;;;1.00;;
68800;SDS011;55784;50.734;7.086;2023-01-01T02:54:32;5.53;;;1.48;;
68800;SDS011;55784;50.734;7.086;2023-01-01T03:00:00;4.82;;;1.00;;
68800;SDS011;55784;50.734;7.086;2023-01-01T03:05:42;5.30;;;1.00;;
68800;SDS011;55784;50.734;7.086;2023-01-01T03:08:46;5.05;;;1.00;;
68800;SDS011;55784;50.734;7.086;2023-01-01T03:11:16;5.40;;;1.10;;
68800;SDS011;55784;50.734;7.086;2023-01-01T03:13:57;5.93;;;1.10;;
68800;SDS011;55784;50.734;7.086;2023-01-01T03:16:45;5.65;;;1.10;;
68800;SDS011;55784;50.734;7.086;2023-01-01T03:19:16;7.17;;;1.00;;
68800;SDS011;55784;50.734;7.086;2023-01-01T03:24:19;4.70;;;1.10;;
68800;SDS011;55784;50.734;7.086;2023-01-01T03:26:50;5.85;;;1.20;;
68800;SDS011;55784;50.734;7.086;2023-01-01T03:29:19;5.63;;;1.40;;
68800;SDS011;55784;50.734;7.086;2023-01-01T03:31:47;10.83;;;2.60;;
68800;SDS011;55784;50.734;7.086;2023-01-01T03:34:16;6.13;;;1.20;;
68800;SDS011;55784;50.734;7.086;2023-01-01T03:36:47;5.75;;;1.00;;
68800;SDS011;55784;50.734;7.086;2023-01-01T03:44:42;5.40;;;1.03;;
68800;SDS011;55784;50.734;7.086;2023-01-01T03:47:10;5.45;;;1.10;;
68800;SDS011;55784;50.734;7.086;2023-01-01T03:49:35;5.50;;;1.10;;
68800;SDS011;55784;50.734;7.086;2023-01-01T03:52:10;7.03;;;1.10;;
68800;SDS011;55784;50.734;7.086;2023-01-01T03:57:21;5.43;;;1.10;;
68800;SDS011;55784;50.734;7.086;2023-01-01T03:59:52;7.18;;;1.20;;
68800;SDS011;55784;50.734;7.086;2023-01-01T04:02:30;5.63;;;1.10;;
68800;SDS011;55784;50.734;7.086;2023-01-01T04:05:00;5.07;;;1.10;;
68800;SDS011;55784;50.734;7.086;2023-01-01T04:07:31;5.57;;;1.10;;
68800;SDS011;55784;50.734;7.086;2023-01-01T04:09:58;5.30;;;1.30;;
68800;SDS011;55784;50.734;7.086;2023-01-01T04:12:26;5.38;;;1.30;;
68800;SDS011;55784;50.734;7.086;2023-01-01T04:14:53;4.25;;;1.05;;
68800;SDS011;55784;50.734;7.086;2023-01-01T04:17:19;5.00;;;0.90;;
68800;SDS011;55784;50.734;7.086;2023-01-01T04:19:44;4.88;;;0.90;;
68800;SDS011;55784;50.734;7.086;2023-01-01T04:22:09;5.23;;;1.20;;
68800;SDS011;55784;50.734;7.086;2023-01-01T04:24:35;5.30;;;1.20;;
68800;SDS011;55784;50.734;7.086;2023-01-01T04:27:00;8.93;;;1.50;;
68800;SDS011;55784;50.734;7.086;2023-01-01T04:29:29;4.53;;;1.13;;
68800;SDS011;55784;50.734;7.086;2023-01-01T04:31:54;5.03;;;1.20;;
68800;SDS011;55784;50.734;7.086;2023-01-01T04:34:19;5.60;;;1.00;;
68800;SDS011;55784;50.734;7.086;2023-01-01T04:36:44;6.03;;;1.13;;
68800;SDS011;55784;50.734;7.086;2023-01-01T04:39:10;4.07;;;1.00;;
68800;SDS011;55784;50.734;7.086;2023-01-01T04:41:35;6.10;;;1.27;;
68800;SDS011;55784;50.734;7.086;2023-01-01T04:44:00;6.53;;;1.00;;
68800;SDS011;55784;50.734;7.086;2023-01-01T04:46:26;4.57;;;0.93;;
68800;SDS011;55784;50.734;7.086;2023-01-01T04:48:51;5.50;;;1.10;;
68800;SDS011;55784;50.734;7.086;2023-01-01T04:51:17;5.03;;;1.20;;
68800;SDS011;55784;50.734;7.086;2023-01-01T04:53:44;5.97;;;1.10;;
68800;SDS011;55784;50.734;7.086;2023-01-01T04:56:16;4.07;;;0.97;;
68800;SDS011;55784;50.734;7.086;2023-01-01T04:58:44;5.47;;;1.30;;
68800;SDS011;55784;50.734;7.086;2023-01-01T05:01:17;4.72;;;1.17;;
68800;SDS011;55784;50.734;7.086;2023-01-01T05:03:52;4.60;;;1.05;;
68800;SDS011;55784;50.734;7.086;2023-01-01T05:06:18;5.03;;;1.10;;
68800;SDS011;55784;50.734;7.086;2023-01-01T05:08:47;5.22;;;1.10;;
68800;SDS011;55784;50.734;7.086;2023-01-01T05:11:16;4.55;;;0.90;;
68800;SDS011;55784;50.734;7.086;2023-01-01T05:13:44;8.05;;;1.10;;
68800;SDS011;55784;50.734;7.086;2023-01-01T05:16:12;5.65;;;1.17;;
68800;SDS011;55784;50.734;7.086;2023-01-01T05:18:39;6.27;;;1.40;;
68800;SDS011;55784;50.734;7.086;2023-01-01T05:21:06;4.68;;;1.00;;
68800;SDS011;55784;50.734;7.086;2023-01-01T05:23:34;5.00;;;0.95;;
68800;SDS011;55784;50.734;7.086;2023-01-01T05:26:06;4.23;;;1.00;;
68800;SDS011;55784;50.734;7.086;2023-01-01T05:28:33;5.25;;;1.08;;
68800;SDS011;55784;50.734;7.086;2023-01-01T05:31:08;4.50;;;1.05;;
68800;SDS011;55784;50.734;7.086;2023-01-01T05:33:36;5.90;;;1.02;;
68800;SDS011;55784;50.734;7.086;2023-01-01T05:36:02;5.37;;;1.43;;
68800;SDS011;55784;50.734;7.086;2023-01-01T05:38:31;5.53;;;1.10;;
68800;SDS011;55784;50.734;7.086;2023-01-01T05:40:57;4.25;;;1.00;;
68800;SDS011;55784;50.734;7.086;2023-01-01T05:43:25;5.45;;;1.00;;
68800;SDS011;55784;50.734;7.086;2023-01-01T05:46:00;6.80;;;1.07;;
68800;SDS011;55784;50.734;7.086;2023-01-01T05:48:29;4.90;;;1.05;;
68800;SDS011;55784;50.734;7.086;2023-01-01T05:51:04;5.87;;;1.20;;
68800;SDS011;55784;50.734;7.086;2023-01-01T05:53:35;5.55;;;1.20;;
68800;SDS011;55784;50.734;7.086;2023-01-01T05:56:00;5.47;;;1.10;;
68800;SDS011;55784;50.734;7.086;2023-01-01T05:58:26;4.70;;;1.20;;
68800;SDS011;55784;50.734;7.086;2023-01-01T06:00:53;5.57;;;1.20;;
68800;SDS011;55784;50.734;7.086;2023-01-01T06:03:32;6.20;;;1.20;;
68800;SDS011;55784;50.734;7.086;2023-01-01T06:06:01;5.30;;;1.17;;
68800;SDS011;55784;50.734;7.086;2023-01-01T06:08:30;4.47;;;0.95;;
68800;SDS011;55784;50.734;7.086;2023-01-01T06:10:59;5.23;;;1.07;;
68800;SDS011;55784;50.734;7.086;2023-01-01T06:13:27;3.90;;;1.10;;
68800;SDS011;55784;50.734;7.086;2023-01-01T06:15:56;4.38;;;1.17;;
68800;SDS011;55784;50.734;7.086;2023-01-01T06:18:29;5.15;;;1.20;;
68800;SDS011;55784;50.734;7.086;2023-01-01T06:21:06;7.53;;;1.20;;
68800;SDS011;55784;50.734;7.086;2023-01-01T06:23:42;4.60;;;1.15;;
68800;SDS011;55784;50.734;7.086;2023-01-01T06:26:11;4.80;;;1.10;;
68800;SDS011;55784;50.734;7.086;2023-01-01T06:28:36;5.75;;;1.20;;
68800;SDS011;55784;50.734;7.086;2023-01-01T06:31:03;6.77;;;1.20;;
68800;SDS011;55784;50.734;7.086;2023-01-01T06:33:29;5.55;;;1.20;;
68800;SDS011;55784;50.734;7.086;2023-01-01T06:36:00;4.88;;;1.10;;
68800;SDS011;55784;50.734;7.086;2023-01-01T06:38:26;6.82;;;1.23;;
68800;SDS011;55784;50.734;7.086;2023-01-01T06:40:58;4.47;;;1.20;;
68800;SDS011;55784;50.734;7.086;2023-01-01T06:43:29;4.15;;;0.98;;
68800;SDS011;55784;50.734;7.086;2023-01-01T06:46:02;5.97;;;1.10;;
68800;SDS011;55784;50.734;7.086;2023-01-01T06:48:33;5.50;;;1.00;;
68800;SDS011;55784;50.734;7.086;2023-01-01T06:51:08;5.45;;;1.20;;
68800;SDS011;55784;50.734;7.086;2023-01-01T06:53:35;4.95;;;1.10;;
68800;SDS011;55784;50.734;7.086;2023-01-01T06:56:01;5.63;;;1.10;;
68800;SDS011;55784;50.734;7.086;2023-01-01T06:58:27;5.97;;;1.20;;
68800;SDS011;55784;50.734;7.086;2023-01-01T07:00:52;5.05;;;1.10;;
68800;SDS011;55784;50.734;7.086;2023-01-01T07:13:42;5.57;;;1.10;;
68800;SDS011;55784;50.734;7.086;2023-01-01T07:16:08;5.90;;;1.30;;
68800;SDS011;55784;50.734;7.086;2023-01-01T07:18:33;6.83;;;1.30;;
68800;SDS011;55784;50.734;7.086;2023-01-01T07:21:05;5.13;;;1.20;;
68800;SDS011;55784;50.734;7.086;2023-01-01T07:23:49;5.60;;;1.33;;
68800;SDS011;55784;50.734;7.086;2023-01-01T07:26:15;8.10;;;1.13;;
68800;SDS011;55784;50.734;7.086;2023-01-01T07:28:40;5.37;;;1.43;;
68800;SDS011;55784;50.734;7.086;2023-01-01T07:31:09;4.45;;;0.98;;
68800;SDS011;55784;50.734;7.086;2023-01-01T07:33:35;5.33;;;1.10;;
68800;SDS011;55784;50.734;7.086;2023-01-01T07:36:00;7.18;;;1.27;;
68800;SDS011;55784;50.734;7.086;2023-01-01T07:38:25;6.13;;;1.10;;
68800;SDS011;55784;50.734;7.086;2023-01-01T07:41:01;5.32;;;1.20;;
68800;SDS011;55784;50.734;7.086;2023-01-01T07:43:26;6.20;;;0.93;;
68800;SDS011;55784;50.734;7.086;2023-01-01T07:45:52;5.63;;;1.27;;
68800;SDS011;55784;50.734;7.086;2023-01-01T07:48:17;7.30;;;1.20;;
68800;SDS011;55784;50.734;7.086;2023-01-01T07:50:52;6.80;;;1.10;;
68800;SDS011;55784;50.734;7.086;2023-01-01T07:53:32;6.43;;;1.20;;
68800;SDS011;55784;50.734;7.086;2023-01-01T07:56:03;5.75;;;1.10;;
68800;SDS011;55784;50.734;7.086;2023-01-01T07:59:04;6.25;;;1.30;;
68800;SDS011;55784;50.734;7.086;2023-01-01T08:01:38;5.43;;;1.20;;
68800;SDS011;55784;50.734;7.086;2023-01-01T08:04:10;5.93;;;1.40;;
68800;SDS011;55784;50.734;7.086;2023-01-01T08:06:38;5.90;;;1.10;;
68800;SDS011;55784;50.734;7.086;2023-01-01T08:09:10;6.07;;;1.27;;
68800;SDS011;55784;50.734;7.086;2023-01-01T08:11:39;5.68;;;1.20;;
68800;SDS011;55784;50.734;7.086;2023-01-01T08:14:10;6.70;;;1.30;;
68800;SDS011;55784;50.734;7.086;2023-01-01T08:16:49;5.37;;;1.10;;
68800;SDS011;55784;50.734;7.086;2023-01-01T08:19:34;7.90;;;1.20;;
68800;SDS011;55784;50.734;7.086;2023-01-01T08:21:59;6.28;;;1.40;;
68800;SDS011;55784;50.734;7.086;2023-01-01T08:24:25;6.20;;;1.30;;
68800;SDS011;55784;50.734;7.086;2023-01-01T08:29:52;8.88;;;1.30;;
68800;SDS011;55784;50.734;7.086;2023-01-01T08:32:44;5.97;;;1.15;;
68800;SDS011;55784;50.734;7.086;2023-01-01T08:35:12;5.47;;;1.17;;
68800;SDS011;55784;50.734;7.086;2023-01-01T08:40:28;6.03;;;1.27;;
68800;SDS011;55784;50.734;7.086;2023-01-01T08:43:31;6.72;;;1.48;;
68800;SDS011;55784;50.734;7.086;2023-01-01T08:46:08;6.03;;;1.25;;
68800;SDS011;55784;50.734;7.086;2023-01-01T08:52:22;6.95;;;1.20;;
68800;SDS011;55784;50.734;7.086;2023-01-01T09:05:03;6.53;;;1.30;;
68800;SDS011;55784;50.734;7.086;2023-01-01T09:11:26;6.53;;;1.13;;
68800;SDS011;55784;50.734;7.086;2023-01-01T09:27:57;4.53;;;0.90;;
68800;SDS011;55784;50.734;7.086;2023-01-01T09:38:14;5.93;;;1.10;;
68800;SDS011;55784;50.734;7.086;2023-01-01T09:47:36;5.57;;;1.10;;
68800;SDS011;55784;50.734;7.086;2023-01-01T09:50:31;5.15;;;1.10;;
68800;SDS011;55784;50.734;7.086;2023-01-01T10:37:53;6.25;;;1.00;;
68800;SDS011;55784;50.734;7.086;2023-01-01T10:40:19;5.10;;;1.00;;
68800;SDS011;55784;50.734;7.086;2023-01-01T10:48:29;7.22;;;0.90;;
68800;SDS011;55784;50.734;7.086;2023-01-01T10:51:02;5.23;;;1.33;;
68800;SDS011;55784;50.734;7.086;2023-01-01T10:53:30;7.38;;;0.95;;
68800;SDS011;55784;50.734;7.086;2023-01-01T10:58:35;5.90;;;1.00;;
68800;SDS011;55784;50.734;7.086;2023-01-01T11:06:42;7.80;;;1.20;;
68800;SDS011;55784;50.734;7.086;2023-01-01T11:09:29;5.25;;;0.95;;
68800;SDS011;55784;50.734;7.086;2023-01-01T11:12:01;5.40;;;1.05;;
68800;SDS011;55784;50.734;7.086;2023-01-01T11:14:32;5.60;;;0.80;;
68800;SDS011;55784;50.734;7.086;2023-01-01T11:17:02;6.97;;;0.90;;
68800;SDS011;55784;50.734;7.086;2023-01-01T11:19:29;4.75;;;1.10;;
68800;SDS011;55784;50.734;7.086;2023-01-01T11:21:57;5.57;;;0.90;;
68800;SDS011;55784;50.734;7.086;2023-01-01T11:24:28;6.20;;;0.93;;
68800;SDS011;55784;50.734;7.086;2023-01-01T11:29:44;5.10;;;0.88;;
68800;SDS011;55784;50.734;7.086;2023-01-01T11:32:11;6.18;;;1.17;;
68800;SDS011;55784;50.734;7.086;2023-01-01T11:34:43;7.80;;;1.10;;
68800;SDS011;55784;50.734;7.086;2023-01-01T11:37:33;7.65;;;2.22;;
68800;SDS011;55784;50.734;7.086;2023-01-01T11:40:05;6.30;;;1.02;;
68800;SDS011;55784;50.734;7.086;2023-01-01T11:42:43;8.38;;;1.20;;
68800;SDS011;55784;50.734;7.086;2023-01-01T11:47:44;6.00;;;1.00;;
68800;SDS011;55784;50.734;7.086;2023-01-01T11:52:44;5.75;;;0.82;;
68800;SDS011;55784;50.734;7.086;2023-01-01T12:32:18;5.80;;;1.17;;
68800;SDS011;55784;50.734;7.086;2023-01-01T12:37:45;5.43;;;1.02;;
68800;SDS011;55784;50.734;7.086;2023-01-01T12:45:40;5.27;;;0.80;;
68800;SDS011;55784;50.734;7.086;2023-01-01T12:48:18;6.22;;;1.00;;
68800;SDS011;55784;50.734;7.086;2023-01-01T12:54:03;5.22;;;1.10;;
68800;SDS011;55784;50.734;7.086;2023-01-01T12:56:48;5.00;;;1.08;;
68800;SDS011;55784;50.734;7.086;2023-01-01T12:59:25;4.80;;;1.10;;
68800;SDS011;55784;50.734;7.086;2023-01-01T13:01:56;6.60;;;0.98;;
68800;SDS011;55784;50.734;7.086;2023-01-01T13:04:24;6.20;;;1.33;;
68800;SDS011;55784;50.734;7.086;2023-01-01T13:06:59;5.63;;;1.20;;
68800;SDS011;55784;50.734;7.086;2023-01-01T13:09:32;5.80;;;1.05;;
68800;SDS011;55784;50.734;7.086;2023-01-01T13:12:02;5.50;;;1.00;;
68800;SDS011;55784;50.734;7.086;2023-01-01T13:14:28;5.88;;;1.20;;
68800;SDS011;55784;50.734;7.086;2023-01-01T13:16:54;5.00;;;1.13;;
68800;SDS011;55784;50.734;7.086;2023-01-01T13:19:31;5.50;;;1.15;;
68800;SDS011;55784;50.734;7.086;2023-01-01T13:22:00;4.35;;;1.00;;
68800;SDS011;55784;50.734;7.086;2023-01-01T13:33:24;7.45;;;1.38;;
68800;SDS011;55784;50.734;7.086;2023-01-01T13:38:49;7.07;;;1.17;;
68800;SDS011;55784;50.734;7.086;2023-01-01T13:44:15;6.23;;;1.20;;
68800;SDS011;55784;50.734;7.086;2023-01-01T13:50:26;5.97;;;1.10;;
68800;SDS011;55784;50.734;7.086;2023-01-01T14:07:48;4.63;;;0.80;;
68800;SDS011;55784;50.734;7.086;2023-01-01T14:10:30;6.15;;;1.20;;
68800;SDS011;55784;50.734;7.086;2023-01-01T14:13:12;5.30;;;0.90;;
68800;SDS011;55784;50.734;7.086;2023-01-01T14:18:35;5.10;;;0.85;;
68800;SDS011;55784;50.734;7.086;2023-01-01T14:21:06;4.45;;;0.80;;
68800;SDS011;55784;50.734;7.086;2023-01-01T14:23:39;4.30;;;1.00;;
68800;SDS011;55784;50.734;7.086;2023-01-01T14:26:12;4.90;;;1.10;;
68800;SDS011;55784;50.734;7.086;2023-01-01T14:28:41;4.13;;;0.82;;
68800;SDS011;55784;50.734;7.086;2023-01-01T14:31:11;5.10;;;1.10;;
68800;SDS011;55784;50.734;7.086;2023-01-01T14:33:39;4.28;;;1.00;;
68800;SDS011;55784;50.734;7.086;2023-01-01T14:36:12;6.15;;;0.90;;
68800;SDS011;55784;50.734;7.086;2023-01-01T14:38:45;6.30;;;1.20;;
68800;SDS011;55784;50.734;7.086;2023-01-01T14:41:16;6.95;;;1.10;;
68800;SDS011;55784;50.734;7.086;2023-01-01T14:43:48;5.93;;;1.00;;
68800;SDS011;55784;50.734;7.086;2023-01-01T14:46:17;4.85;;;1.02;;
68800;SDS011;55784;50.734;7.086;2023-01-01T14:48:51;5.60;;;1.23;;
68800;SDS011;55784;50.734;7.086;2023-01-01T14:51:22;4.73;;;0.93;;
68800;SDS011;55784;50.734;7.086;2023-01-01T14:53:55;7.10;;;1.20;;
68800;SDS011;55784;50.734;7.086;2023-01-01T14:58:57;6.70;;;1.30;;
68800;SDS011;55784;50.734;7.086;2023-01-01T15:04:27;5.97;;;1.10;;
68800;SDS011;55784;50.734;7.086;2023-01-01T15:07:28;6.45;;;1.40;;
68800;SDS011;55784;50.734;7.086;2023-01-01T15:09:56;6.40;;;1.00;;
68800;SDS011;55784;50.734;7.086;2023-01-01T15:12:24;6.85;;;1.10;;
68800;SDS011;55784;50.734;7.086;2023-01-01T15:14:53;8.82;;;4.05;;
68800;SDS011;55784;50.734;7.086;2023-01-01T15:17:21;6.10;;;1.20;;
68800;SDS011;55784;50.734;7.086;2023-01-01T15:22:34;5.72;;;1.42;;
68800;SDS011;55784;50.734;7.086;2023-01-01T15:25:04;6.50;;;1.65;;
68800;SDS011;55784;50.734;7.086;2023-01-01T15:27:40;6.13;;;1.40;;
68800;SDS011;55784;50.734;7.086;2023-01-01T15:30:20;6.37;;;1.53;;
68800;SDS011;55784;50.734;7.086;2023-01-01T15:32:53;6.10;;;1.58;;
68800;SDS011;55784;50.734;7.086;2023-01-01T15:35:40;7.13;;;1.30;;
68800;SDS011;55784;50.734;7.086;2023-01-01T15:38:27;6.05;;;1.23;;
68800;SDS011;55784;50.734;7.086;2023-01-01T15:44:26;6.23;;;1.40;;
68800;SDS011;55784;50.734;7.086;2023-01-01T15:47:08;5.13;;;1.20;;
68800;SDS011;55784;50.734;7.086;2023-01-01T15:50:05;9.13;;;2.05;;
68800;SDS011;55784;50.734;7.086;2023-01-01T15:52:38;6.50;;;1.38;;
68800;SDS011;55784;50.734;7.086;2023-01-01T15:55:11;7.35;;;1.23;;
68800;SDS011;55784;50.734;7.086;2023-01-01T15:57:45;5.70;;;1.40;;
68800;SDS011;55784;50.734;7.086;2023-01-01T16:00:19;7.00;;;2.03;;
68800;SDS011;55784;50.734;7.086;2023-01-01T16:03:02;6.60;;;1.73;;
68800;SDS011;55784;50.734;7.086;2023-01-01T16:05:48;7.35;;;1.50;;
68800;SDS011;55784;50.734;7.086;2023-01-01T16:08:15;7.53;;;1.77;;
68800;SDS011;55784;50.734;7.086;2023-01-01T16:10:44;8.47;;;1.93;;
68800;SDS011;55784;50.734;7.086;2023-01-01T16:13:10;7.40;;;1.90;;
68800;SDS011;55784;50.734;7.086;2023-01-01T16:15:36;7.22;;;1.98;;
68800;SDS011;55784;50.734;7.086;2023-01-01T16:18:15;6.95;;;1.70;;
68800;SDS011;55784;50.734;7.086;2023-01-01T16:20:42;8.23;;;3.00;;
68800;SDS011;55784;50.734;7.086;2023-01-01T16:23:08;8.47;;;2.87;;
68800;SDS011;55784;50.734;7.086;2023-01-01T16:25:34;7.05;;;1.80;;
68800;SDS011;55784;50.734;7.086;2023-01-01T16:28:00;7.97;;;2.27;;
68800;SDS011;55784;50.734;7.086;2023-01-01T16:30:25;7.53;;;2.27;;
68800;SDS011;55784;50.734;7.086;2023-01-01T16:32:50;9.45;;;2.30;;
68800;SDS011;55784;50.734;7.086;2023-01-01T16:35:16;5.50;;;1.33;;
68800;SDS011;55784;50.734;7.086;2023-01-01T16:37:41;5.83;;;1.60;;
68800;SDS011;55784;50.734;7.086;2023-01-01T16:40:07;9.37;;;3.33;;
68800;SDS011;55784;50.734;7.086;2023-01-01T16:42:33;7.43;;;2.10;;
68800;SDS011;55784;50.734;7.086;2023-01-01T16:44:58;9.80;;;2.07;;
68800;SDS011;55784;50.734;7.086;2023-01-01T16:47:24;7.82;;;2.20;;
68800;SDS011;55784;50.734;7.086;2023-01-01T16:49:49;8.30;;;2.37;;
68800;SDS011;55784;50.734;7.086;2023-01-01T16:52:15;7.17;;;1.90;;
68800;SDS011;55784;50.734;7.086;2023-01-01T16:54:40;7.10;;;1.70;;
68800;SDS011;55784;50.734;7.086;2023-01-01T16:57:06;6.87;;;1.43;;
68800;SDS011;55784;50.734;7.086;2023-01-01T16:59:31;9.33;;;1.90;;
68800;SDS011;55784;50.734;7.086;2023-01-01T17:01:56;6.30;;;1.80;;
68800;SDS011;55784;50.734;7.086;2023-01-01T17:04:22;7.73;;;2.30;;
68800;SDS011;55784;50.734;7.086;2023-01-01T17:06:47;10.10;;;2.40;;
68800;SDS011;55784;50.734;7.086;2023-01-01T17:09:12;7.07;;;1.93;;
68800;SDS011;55784;50.734;7.086;2023-01-01T17:11:39;6.00;;;2.08;;
68800;SDS011;55784;50.734;7.086;2023-01-01T17:14:05;7.90;;;2.50;;
68800;SDS011;55784;50.734;7.086;2023-01-01T17:16:31;9.97;;;2.60;;
68800;SDS011;55784;50.734;7.086;2023-01-01T17:18:56;10.43;;;3.38;;
68800;SDS011;55784;50.734;7.086;2023-01-01T17:21:22;10.30;;;3.70;;
68800;SDS011;55784;50.734;7.086;2023-01-01T17:23:48;10.47;;;3.33;;
68800;SDS011;55784;50.734;7.086;2023-01-01T17:26:18;10.23;;;3.33;;
68800;SDS011;55784;50.734;7.086;2023-01-01T17:28:46;11.52;;;4.00;;
68800;SDS011;55784;50.734;7.086;2023-01-01T17:31:13;10.52;;;3.28;;
68800;SDS011;55784;50.734;7.086;2023-01-01T17:33:40;8.43;;;2.67;;
68800;SDS011;55784;50.734;7.086;2023-01-01T17:36:07;7.57;;;2.40;;
68800;SDS011;55784;50.734;7.086;2023-01-01T17:38:35;8.68;;;2.45;;
68800;SDS011;55784;50.734;7.086;2023-01-01T17:41:05;7.70;;;2.35;;
68800;SDS011;55784;50.734;7.086;2023-01-01T17:43:32;10.52;;;2.65;;
68800;SDS011;55784;50.734;7.086;2023-01-01T17:46:12;10.77;;;2.80;;
68800;SDS011;55784;50.734;7.086;2023-01-01T17:48:39;9.13;;;2.70;;
68800;SDS011;55784;50.734;7.086;2023-01-01T17:51:05;8.77;;;2.88;;
68800;SDS011;55784;50.734;7.086;2023-01-01T17:53:31;9.45;;;2.60;;
68800;SDS011;55784;50.734;7.086;2023-01-01T17:55:56;8.63;;;2.90;;
68800;SDS011;55784;50.734;7.086;2023-01-01T17:58:22;8.40;;;2.90;;
68800;SDS011;55784;50.734;7.086;2023-01-01T18:00:48;8.65;;;2.80;;
68800;SDS011;55784;50.734;7.086;2023-01-01T18:03:14;10.47;;;2.60;;
68800;SDS011;55784;50.734;7.086;2023-01-01T18:05:42;10.20;;;3.00;;
68800;SDS011;55784;50.734;7.086;2023-01-01T18:08:08;10.50;;;2.47;;
68800;SDS011;55784;50.734;7.086;2023-01-01T18:10:33;10.23;;;2.67;;
68800;SDS011;55784;50.734;7.086;2023-01-01T18:12:59;8.35;;;2.53;;
68800;SDS011;55784;50.734;7.086;2023-01-01T18:15:24;12.07;;;4.20;;
68800;SDS011;55784;50.734;7.086;2023-01-01T18:17:50;12.70;;;4.10;;
68800;SDS011;55784;50.734;7.086;2023-01-01T18:20:16;11.25;;;3.10;;
68800;SDS011;55784;50.734;7.086;2023-01-01T18:22:42;8.90;;;3.07;;
68800;SDS011;55784;50.734;7.086;2023-01-01T18:25:09;11.82;;;3.65;;
68800;SDS011;55784;50.734;7.086;2023-01-01T18:27:34;10.15;;;3.40;;
68800;SDS011;55784;50.734;7.086;2023-01-01T18:30:00;12.43;;;4.50;;
68800;SDS011;55784;50.734;7.086;2023-01-01T18:32:25;10.53;;;3.63;;
68800;SDS011;55784;50.734;7.086;2023-01-01T18:34:50;10.83;;;3.10;;
68800;SDS011;55784;50.734;7.086;2023-01-01T18:37:17;9.53;;;3.40;;
68800;SDS011;55784;50.734;7.086;2023-01-01T18:39:43;12.07;;;4.28;;
68800;SDS011;55784;50.734;7.086;2023-01-01T18:42:33;10.85;;;4.00;;
68800;SDS011;55784;50.734;7.086;2023-01-01T18:45:09;10.15;;;3.60;;
68800;SDS011;55784;50.734;7.086;2023-01-01T18:47:39;11.70;;;3.90;;
68800;SDS011;55784;50.734;7.086;2023-01-01T18:50:14;12.13;;;3.90;;
68800;SDS011;55784;50.734;7.086;2023-01-01T18:52:50;12.07;;;3.77;;
68800;SDS011;55784;50.734;7.086;2023-01-01T18:55:17;11.80;;;3.63;;
68800;SDS011;55784;50.734;7.086;2023-01-01T18:57:45;12.77;;;4.10;;
68800;SDS011;55784;50.734;7.086;2023-01-01T19:02:43;10.17;;;3.27;;
68800;SDS011;55784;50.734;7.086;2023-01-01T19:05:12;8.68;;;2.67;;
68800;SDS011;55784;50.734;7.086;2023-01-01T19:07:38;9.68;;;2.97;;
68800;SDS011;55784;50.734;7.086;2023-01-01T19:16:01;10.50;;;3.17;;
68800;SDS011;55784;50.734;7.086;2023-01-01T19:18:46;15.63;;;5.65;;
68800;SDS011;55784;50.734;7.086;2023-01-01T19:23:39;11.37;;;4.13;;
68800;SDS011;55784;50.734;7.086;2023-01-01T19:28:47;8.32;;;2.65;;
68800;SDS011;55784;50.734;7.086;2023-01-01T19:31:16;9.75;;;3.10;;